Time;durP1;ratioP1;P1;durP2;ratioP2;P2;SDS_P1;SDS_P2;PMS_P1;PMS_P2;Temp;Humidity;BMP_temperature;BMP_pressure;BME280_temperature;BME280_humidity;BME280_pressure;Samples;Min_cycle;Max_cycle;Signal;HPM_P1;HPM_P2
2021/06/27 00:00:43;;;;;;;8.87;7.93;;;15.50;99.90;;;;;;5098736;28;20562;-85
2021/06/27 00:03:10;;;;;;;11.40;7.33;;;15.50;99.90;;;;;;5097864;28;20196;-85
2021/06/27 00:05:37;;;;;;;8.77;7.30;;;15.50;99.90;;;;;;5097438;28;20187;-86
2021/06/27 00:08:12;;;;;;;7.87;7.07;;;15.50;99.90;;;;;;5098160;28;20644;-85
2021/06/27 00:10:42;;;;;;;8.57;7.43;;;15.50;99.90;;;;;;5096294;28;20195;-86
2021/06/27 00:13:08;;;;;;;9.67;7.43;;;15.50;99.90;;;;;;5096965;28;20171;-86
2021/06/27 00:15:41;;;;;;;10.80;7.90;;;15.40;99.90;;;;;;5096822;28;20176;-85
2021/06/27 00:18:08;;;;;;;8.23;7.43;;;15.40;99.90;;;;;;5101533;28;20192;-85
2021/06/27 00:20:36;;;;;;;10.47;8.03;;;15.40;99.90;;;;;;5102586;28;20279;-86
2021/06/27 00:23:02;;;;;;;8.60;7.70;;;15.40;99.90;;;;;;5098710;28;20203;-86
2021/06/27 00:25:30;;;;;;;8.60;7.70;;;15.40;99.90;;;;;;5098896;28;20266;-85
2021/06/27 00:27:58;;;;;;;8.40;7.53;;;15.40;99.90;;;;;;5099242;28;20275;-85
2021/06/27 00:30:25;;;;;;;8.13;7.27;;;15.40;99.90;;;;;;5098298;28;20180;-85
2021/06/27 00:32:51;;;;;;;8.30;7.40;;;15.30;99.90;;;;;;5099454;28;20593;-86
2021/06/27 00:35:18;;;;;;;8.47;7.57;;;15.30;99.90;;;;;;5097940;28;20638;-86
2021/06/27 00:37:47;;;;;;;9.73;7.50;;;15.30;99.90;;;;;;5098812;28;20192;-86
2021/06/27 00:40:21;;;;;;;8.70;7.80;;;15.20;99.90;;;;;;5098915;28;20172;-86
2021/06/27 00:42:48;;;;;;;8.20;7.00;;;15.20;99.90;;;;;;5097991;28;20264;-86
2021/06/27 00:45:15;;;;;;;8.80;7.90;;;15.20;99.90;;;;;;5098114;28;20176;-86
2021/06/27 00:47:42;;;;;;;8.87;7.40;;;15.20;99.90;;;;;;5098324;28;20204;-86
2021/06/27 00:50:17;;;;;;;10.33;7.57;;;15.20;99.90;;;;;;5099168;28;20240;-86
2021/06/27 00:52:43;;;;;;;8.33;7.03;;;15.20;99.90;;;;;;5100810;28;20640;-86
2021/06/27 00:55:10;;;;;;;7.30;6.60;;;15.20;99.90;;;;;;5100406;28;20258;-86
2021/06/27 00:57:37;;;;;;;8.97;7.50;;;15.20;99.90;;;;;;5101045;28;20693;-86
2021/06/27 01:00:07;;;;;;;8.37;7.43;;;15.20;99.90;;;;;;5101297;28;20184;-86
2021/06/27 01:02:32;;;;;;;7.87;7.03;;;15.10;99.90;;;;;;5100183;28;20176;-86
2021/06/27 01:04:58;;;;;;;8.27;7.37;;;15.10;99.90;;;;;;5101608;28;20176;-86
2021/06/27 01:07:23;;;;;;;8.80;7.70;;;15.10;99.90;;;;;;5106339;28;20216;-85
2021/06/27 01:09:49;;;;;;;8.93;7.83;;;15.10;99.90;;;;;;5103160;28;20161;-85
2021/06/27 01:12:15;;;;;;;9.90;8.50;;;15.10;99.90;;;;;;5098669;28;20240;-86
2021/06/27 01:14:40;;;;;;;10.40;7.60;;;15.10;99.90;;;;;;5096759;28;20266;-86
2021/06/27 01:17:06;;;;;;;8.77;7.40;;;15.10;99.90;;;;;;5097001;28;20271;-86
2021/06/27 01:19:33;;;;;;;9.63;8.03;;;15.00;99.90;;;;;;5098075;28;20172;-86
2021/06/27 01:21:59;;;;;;;10.13;7.63;;;15.00;99.90;;;;;;5096889;28;20180;-86
2021/06/27 01:24:26;;;;;;;8.73;7.77;;;15.00;99.90;;;;;;5099016;28;20206;-86
2021/06/27 01:26:52;;;;;;;8.53;7.67;;;15.00;99.90;;;;;;5097672;28;20188;-86
2021/06/27 01:29:17;;;;;;;8.00;7.20;;;15.00;99.90;;;;;;5098339;28;20312;-85
2021/06/27 01:31:46;;;;;;;11.13;7.73;;;14.90;99.90;;;;;;5097231;28;20185;-86
2021/06/27 01:34:13;;;;;;;8.83;7.93;;;14.90;99.90;;;;;;5097050;28;20515;-86
2021/06/27 01:36:40;;;;;;;8.90;8.00;;;14.90;99.90;;;;;;5097759;28;20634;-86
2021/06/27 01:39:05;;;;;;;8.53;7.63;;;14.90;99.90;;;;;;5097091;28;20534;-85
2021/06/27 01:41:31;;;;;;;8.83;7.90;;;14.80;99.90;;;;;;5098826;28;20209;-85
2021/06/27 01:43:57;;;;;;;9.30;7.80;;;14.90;99.90;;;;;;5099697;28;20204;-86
2021/06/27 01:46:22;;;;;;;9.97;7.73;;;14.80;99.90;;;;;;5101420;28;20270;-86
2021/06/27 01:48:48;;;;;;;9.53;8.03;;;14.80;99.90;;;;;;5102694;28;20192;-85
2021/06/27 01:51:14;;;;;;;8.60;7.70;;;14.80;99.90;;;;;;5101097;28;20172;-86
2021/06/27 01:53:40;;;;;;;8.63;7.73;;;14.70;99.90;;;;;;5101450;28;20270;-85
2021/06/27 01:56:07;;;;;;;10.77;7.97;;;14.70;99.90;;;;;;5101618;28;20176;-85
2021/06/27 01:58:36;;;;;;;8.77;7.80;;;14.70;99.90;;;;;;5102489;28;20226;-86
2021/06/27 02:01:23;;;;;;;9.33;7.53;;;14.70;99.90;;;;;;5103286;28;20180;-85
2021/06/27 02:03:50;;;;;;;8.83;7.17;;;14.70;99.90;;;;;;5103802;28;20192;-85
2021/06/27 02:06:17;;;;;;;8.07;7.27;;;14.60;99.90;;;;;;5104289;28;20306;-86
2021/06/27 02:08:43;;;;;;;8.63;6.57;;;14.60;99.90;;;;;;5104448;28;20524;-86
2021/06/27 02:11:10;;;;;;;8.17;6.70;;;14.60;99.90;;;;;;5105177;28;20176;-86
2021/06/27 02:13:37;;;;;;;7.57;6.87;;;14.60;99.90;;;;;;5104791;28;20176;-86
2021/06/27 02:16:03;;;;;;;6.90;6.20;;;14.60;99.90;;;;;;5105187;28;20190;-86
2021/06/27 02:18:41;;;;;;;6.73;5.93;;;14.50;99.90;;;;;;5106060;28;20200;-86
2021/06/27 02:21:12;;;;;;;8.23;6.47;;;14.50;99.90;;;;;;5111708;28;20171;-85
2021/06/27 02:23:39;;;;;;;7.80;6.30;;;14.40;99.90;;;;;;5109773;28;20203;-86
2021/06/27 02:26:05;;;;;;;6.57;5.87;;;14.40;99.90;;;;;;5104434;28;20267;-86
2021/06/27 02:28:31;;;;;;;7.57;6.23;;;14.40;99.90;;;;;;5104750;28;20223;-86
2021/06/27 02:30:58;;;;;;;8.73;6.47;;;14.30;99.90;;;;;;5104879;28;20218;-86
2021/06/27 02:33:24;;;;;;;7.00;6.07;;;14.30;99.90;;;;;;5110404;28;20195;-85
2021/06/27 02:35:50;;;;;;;7.10;5.80;;;14.30;99.90;;;;;;5102028;28;20516;-85
2021/06/27 02:38:16;;;;;;;9.57;6.03;;;14.30;99.90;;;;;;5101527;28;20287;-86
2021/06/27 02:40:43;;;;;;;7.13;6.43;;;14.30;99.90;;;;;;5102920;28;20168;-86
2021/06/27 02:43:09;;;;;;;7.13;6.40;;;14.30;99.90;;;;;;5101790;28;20200;-86
2021/06/27 02:45:35;;;;;;;7.27;5.40;;;14.30;99.90;;;;;;5101926;28;20199;-86
2021/06/27 02:48:01;;;;;;;7.70;6.17;;;14.30;99.90;;;;;;5099114;28;20196;-86
2021/06/27 02:50:27;;;;;;;8.53;6.30;;;14.30;99.90;;;;;;5098585;28;20198;-86
2021/06/27 02:52:53;;;;;;;7.93;6.30;;;14.20;99.90;;;;;;5098493;28;20251;-86
2021/06/27 02:55:18;;;;;;;6.90;5.83;;;14.20;99.90;;;;;;5098244;28;20176;-86
2021/06/27 02:57:44;;;;;;;8.90;6.57;;;14.20;99.90;;;;;;5101769;28;20263;-85
2021/06/27 03:00:15;;;;;;;6.67;6.07;;;14.20;99.90;;;;;;5109096;28;20195;-86
2021/06/27 03:02:42;;;;;;;9.47;6.80;;;14.20;99.90;;;;;;5102530;28;20576;-86
2021/06/27 03:05:09;;;;;;;7.00;6.30;;;14.20;99.90;;;;;;5101419;28;20183;-86
2021/06/27 03:07:34;;;;;;;7.00;6.30;;;14.10;99.90;;;;;;5099541;28;20227;-86
2021/06/27 03:10:00;;;;;;;6.90;6.20;;;14.20;99.90;;;;;;5098854;28;20176;-86
2021/06/27 03:12:26;;;;;;;9.70;6.30;;;14.10;99.90;;;;;;5099698;28;20169;-86
2021/06/27 03:14:51;;;;;;;7.20;6.50;;;14.10;99.90;;;;;;5098238;28;20305;-86
2021/06/27 03:17:17;;;;;;;7.50;6.43;;;14.10;99.90;;;;;;5097438;28;20199;-86
2021/06/27 03:19:43;;;;;;;6.93;5.97;;;14.10;99.90;;;;;;5098910;28;20176;-87
2021/06/27 03:22:08;;;;;;;8.10;5.93;;;14.00;99.90;;;;;;5097877;28;20517;-86
2021/06/27 03:24:34;;;;;;;5.93;5.30;;;14.00;99.90;;;;;;5101095;28;20200;-86
2021/06/27 03:26:59;;;;;;;6.83;5.50;;;14.00;99.90;;;;;;5106266;28;20211;-86
2021/06/27 03:29:25;;;;;;;6.50;5.83;;;14.00;99.90;;;;;;5097291;28;20176;-86
2021/06/27 03:31:51;;;;;;;7.40;5.37;;;13.90;99.90;;;;;;5096683;28;20214;-87
2021/06/27 03:34:17;;;;;;;7.00;5.53;;;13.80;99.90;;;;;;5098234;28;20203;-87
2021/06/27 03:36:43;;;;;;;5.83;4.90;;;13.80;99.90;;;;;;5098438;28;20231;-86
2021/06/27 03:39:11;;;;;;;7.57;5.70;;;13.70;99.90;;;;;;5096669;28;20200;-87
2021/06/27 03:41:55;;;;;;;6.80;6.07;;;13.80;99.90;;;;;;5096676;28;20182;-87
2021/06/27 03:44:24;;;;;;;5.63;5.13;;;13.80;99.90;;;;;;5097015;28;20203;-87
2021/06/27 03:46:51;;;;;;;6.17;5.27;;;13.80;99.90;;;;;;5096186;28;20232;-87
2021/06/27 03:49:17;;;;;;;6.10;5.43;;;13.80;99.90;;;;;;5096454;28;20214;-87
2021/06/27 03:51:43;;;;;;;5.90;5.30;;;13.90;99.90;;;;;;5096819;28;20263;-87
2021/06/27 03:54:09;;;;;;;5.60;5.10;;;13.90;99.90;;;;;;5096263;28;20230;-87
2021/06/27 03:56:35;;;;;;;5.97;5.37;;;14.00;99.90;;;;;;5096573;28;20176;-87
2021/06/27 03:59:01;;;;;;;5.90;4.90;;;14.00;99.90;;;;;;5098054;28;20224;-86
2021/06/27 04:01:27;;;;;;;7.43;4.80;;;14.10;99.90;;;;;;5103186;28;20542;-87
2021/06/27 04:03:53;;;;;;;6.27;5.00;;;14.20;99.90;;;;;;5096048;28;20199;-86
2021/06/27 04:06:18;;;;;;;5.40;4.90;;;14.20;99.90;;;;;;5096588;28;20168;-87
2021/06/27 04:08:44;;;;;;;5.17;4.37;;;14.20;99.90;;;;;;5102061;28;20195;-86
2021/06/27 04:11:10;;;;;;;7.80;4.20;;;14.20;99.90;;;;;;5095752;28;20181;-86
2021/06/27 04:13:36;;;;;;;5.13;4.63;;;14.30;99.90;;;;;;5096738;28;20191;-87
2021/06/27 04:16:03;;;;;;;6.87;4.57;;;14.40;99.90;;;;;;5095936;28;20184;-86
2021/06/27 04:18:30;;;;;;;4.70;4.20;;;14.40;99.90;;;;;;5095663;28;20700;-86
2021/06/27 04:20:57;;;;;;;4.53;4.10;;;14.40;99.90;;;;;;5095448;28;20229;-86
2021/06/27 04:23:24;;;;;;;4.50;3.90;;;14.50;99.90;;;;;;5095722;28;20200;-87
2021/06/27 04:25:50;;;;;;;4.27;3.53;;;14.50;99.90;;;;;;5096201;28;20172;-86
2021/06/27 04:28:16;;;;;;;4.03;3.23;;;14.60;99.90;;;;;;5095526;28;20215;-86
2021/06/27 04:30:43;;;;;;;3.43;3.10;;;14.60;99.90;;;;;;5097394;28;20255;-86
2021/06/27 04:33:09;;;;;;;3.20;2.70;;;14.70;99.90;;;;;;5096043;28;20196;-86
2021/06/27 04:35:37;;;;;;;3.13;2.60;;;14.80;99.90;;;;;;5097751;28;20179;-86
2021/06/27 04:38:08;;;;;;;2.90;2.53;;;14.80;99.90;;;;;;5096243;28;20195;-86
2021/06/27 04:40:36;;;;;;;2.87;2.60;;;14.90;99.90;;;;;;5096203;28;20191;-86
2021/06/27 04:43:02;;;;;;;3.73;2.33;;;15.00;99.90;;;;;;5097783;28;20242;-86
2021/06/27 04:45:27;;;;;;;2.17;2.03;;;15.10;99.90;;;;;;5096658;28;20207;-86
2021/06/27 04:47:53;;;;;;;2.10;1.90;;;15.10;99.90;;;;;;5096297;28;20226;-86
2021/06/27 04:50:19;;;;;;;2.43;1.77;;;15.20;99.90;;;;;;5096967;28;20172;-86
2021/06/27 04:52:51;;;;;;;4.13;1.90;;;15.20;99.90;;;;;;5097148;28;20169;-86
2021/06/27 04:55:16;;;;;;;2.17;1.77;;;15.20;99.90;;;;;;5097560;28;20145;-86
2021/06/27 04:57:42;;;;;;;2.13;1.53;;;15.30;99.90;;;;;;5096047;28;20199;-86
2021/06/27 05:00:08;;;;;;;2.30;1.80;;;15.30;99.90;;;;;;5098583;28;20172;-86
2021/06/27 05:02:34;;;;;;;2.27;2.07;;;15.30;99.90;;;;;;5096923;28;20198;-86
2021/06/27 05:05:03;;;;;;;2.60;2.20;;;15.30;99.90;;;;;;5099109;28;20688;-86
2021/06/27 05:07:28;;;;;;;3.73;2.00;;;15.30;99.90;;;;;;5097774;28;20188;-86
2021/06/27 05:09:56;;;;;;;2.20;1.87;;;15.30;99.90;;;;;;5096917;28;20222;-87
2021/06/27 05:12:22;;;;;;;2.00;1.80;;;15.30;99.90;;;;;;5097432;28;20176;-87
2021/06/27 05:14:48;;;;;;;2.43;1.97;;;15.40;99.90;;;;;;5097098;28;20245;-86
2021/06/27 05:17:13;;;;;;;2.27;2.00;;;15.40;99.90;;;;;;5097721;28;20181;-86
2021/06/27 05:19:39;;;;;;;3.00;2.13;;;15.40;99.90;;;;;;5102240;28;20179;-86
2021/06/27 05:22:05;;;;;;;3.70;2.03;;;15.40;99.90;;;;;;5101854;28;20176;-86
2021/06/27 05:24:30;;;;;;;2.10;1.90;;;15.40;99.90;;;;;;5113884;28;20207;-86
2021/06/27 05:26:56;;;;;;;3.73;2.23;;;15.40;99.90;;;;;;5104756;28;20188;-86
2021/06/27 05:29:22;;;;;;;2.33;2.07;;;15.40;99.90;;;;;;5102742;28;20200;-86
2021/06/27 05:31:47;;;;;;;2.33;2.03;;;15.40;99.90;;;;;;5101958;28;20722;-86
2021/06/27 05:34:13;;;;;;;3.40;1.87;;;15.40;99.90;;;;;;5099975;28;20664;-86
2021/06/27 05:36:39;;;;;;;2.40;2.20;;;15.40;99.90;;;;;;5099907;28;20233;-86
2021/06/27 05:39:06;;;;;;;2.27;2.07;;;15.50;99.90;;;;;;5099920;28;20224;-86
2021/06/27 05:41:32;;;;;;;2.77;2.13;;;15.50;99.90;;;;;;5099557;28;20216;-86
2021/06/27 05:43:58;;;;;;;2.13;1.93;;;15.60;99.90;;;;;;5099528;28;20196;-86
2021/06/27 05:46:23;;;;;;;3.50;2.03;;;15.70;99.90;;;;;;5099069;28;20263;-86
2021/06/27 05:48:49;;;;;;;2.13;1.93;;;15.80;99.90;;;;;;5100367;28;20625;-86
2021/06/27 05:51:15;;;;;;;2.43;2.00;;;15.90;99.90;;;;;;5097788;28;20215;-86
2021/06/27 05:53:41;;;;;;;2.97;2.07;;;16.00;99.90;;;;;;5100095;28;20187;-86
2021/06/27 05:56:10;;;;;;;2.30;1.90;;;16.00;99.90;;;;;;5104825;28;20189;-86
2021/06/27 05:58:37;;;;;;;3.10;1.70;;;16.10;99.90;;;;;;5099528;28;20218;-86
2021/06/27 06:01:04;;;;;;;2.53;1.90;;;16.20;99.90;;;;;;5098992;28;20184;-86
2021/06/27 06:03:30;;;;;;;2.97;2.40;;;16.30;99.90;;;;;;5100180;28;20204;-86
2021/06/27 06:05:56;;;;;;;2.67;1.83;;;16.30;99.90;;;;;;5101797;28;20176;-86
2021/06/27 06:08:21;;;;;;;2.43;2.23;;;16.40;99.90;;;;;;5099813;28;20268;-86
2021/06/27 06:10:47;;;;;;;2.30;2.10;;;16.40;99.90;;;;;;5100982;28;20176;-85
2021/06/27 06:13:13;;;;;;;2.93;2.10;;;16.40;99.90;;;;;;5101688;28;20180;-86
2021/06/27 06:15:38;;;;;;;2.30;2.07;;;16.50;99.90;;;;;;5100493;28;20377;-86
2021/06/27 06:18:04;;;;;;;4.10;1.70;;;16.50;99.90;;;;;;5100747;28;20678;-86
2021/06/27 06:20:30;;;;;;;1.97;1.77;;;16.50;99.90;;;;;;5100151;28;20183;-86
2021/06/27 06:22:56;;;;;;;2.20;2.00;;;16.60;99.90;;;;;;5101043;28;20195;-86
2021/06/27 06:25:21;;;;;;;2.30;2.10;;;16.60;99.90;;;;;;5101008;28;20188;-86
2021/06/27 06:27:47;;;;;;;1.77;1.67;;;16.50;99.90;;;;;;5101015;28;20216;-86
2021/06/27 06:30:14;;;;;;;1.80;1.70;;;16.60;99.90;;;;;;5102283;28;20228;-86
2021/06/27 06:32:39;;;;;;;3.27;1.87;;;16.60;99.90;;;;;;5102116;28;20209;-86
2021/06/27 06:35:05;;;;;;;5.77;2.07;;;16.80;99.90;;;;;;5105266;28;20176;-85
2021/06/27 06:37:32;;;;;;;2.87;1.60;;;16.80;99.90;;;;;;5102268;28;20199;-86
2021/06/27 06:39:58;;;;;;;3.70;2.07;;;16.90;99.90;;;;;;5102324;28;20191;-86
2021/06/27 06:42:23;;;;;;;3.43;2.00;;;17.00;99.90;;;;;;5102110;28;20180;-85
2021/06/27 06:44:49;;;;;;;1.80;1.70;;;17.20;99.90;;;;;;5103714;28;20215;-86
2021/06/27 06:47:15;;;;;;;3.70;1.80;;;17.20;99.90;;;;;;5102861;28;20180;-83
2021/06/27 06:49:40;;;;;;;1.53;1.43;;;17.30;99.90;;;;;;5106946;28;20160;-81
2021/06/27 06:52:06;;;;;;;2.53;1.70;;;17.40;99.90;;;;;;5100355;28;20183;-82
2021/06/27 06:54:32;;;;;;;1.73;1.63;;;17.50;99.90;;;;;;5099981;28;20190;-82
2021/06/27 06:56:58;;;;;;;1.40;1.30;;;17.60;99.90;;;;;;5101774;28;20319;-82
2021/06/27 06:59:23;;;;;;;3.57;1.90;;;17.70;99.90;;;;;;5100675;28;20192;-82
2021/06/27 07:01:49;;;;;;;2.00;1.80;;;17.80;99.90;;;;;;5101669;28;20200;-82
2021/06/27 07:04:15;;;;;;;5.53;1.93;;;17.90;99.90;;;;;;5098806;28;20250;-82
2021/06/27 07:06:40;;;;;;;1.90;1.80;;;18.00;99.90;;;;;;5096771;28;20176;-81
2021/06/27 07:09:06;;;;;;;1.47;1.23;;;18.00;99.90;;;;;;5096794;28;20205;-81
2021/06/27 07:11:32;;;;;;;1.87;1.70;;;18.10;99.90;;;;;;5095670;28;20188;-81
2021/06/27 07:14:04;;;;;;;1.80;1.70;;;18.20;99.90;;;;;;5097130;28;20183;-81
2021/06/27 07:16:29;;;;;;;2.93;1.63;;;18.20;99.90;;;;;;5091025;28;20546;-81
2021/06/27 07:18:55;;;;;;;1.40;1.30;;;18.20;99.90;;;;;;5096299;28;20196;-81
2021/06/27 07:21:21;;;;;;;1.53;1.43;;;18.20;99.90;;;;;;5087267;28;20234;-81
2021/06/27 07:23:47;;;;;;;3.27;1.73;;;18.20;99.90;;;;;;5093152;28;20677;-81
2021/06/27 07:26:13;;;;;;;3.93;1.97;;;18.30;99.90;;;;;;5097402;28;20188;-80
2021/06/27 07:28:38;;;;;;;2.40;2.10;;;18.30;99.90;;;;;;5098396;28;20224;-81
2021/06/27 07:31:04;;;;;;;2.43;1.90;;;18.40;99.90;;;;;;5097091;28;20177;-81
2021/06/27 07:33:30;;;;;;;1.73;1.63;;;18.50;99.90;;;;;;5097368;28;20258;-80
2021/06/27 07:35:57;;;;;;;1.97;1.70;;;18.50;99.90;;;;;;5098524;28;20258;-79
2021/06/27 07:38:23;;;;;;;2.03;1.70;;;18.70;99.90;;;;;;5100027;28;20197;-80
2021/06/27 07:40:48;;;;;;;1.63;1.50;;;18.80;99.90;;;;;;5097138;28;20187;-80
2021/06/27 07:43:14;;;;;;;2.17;1.90;;;18.80;99.90;;;;;;5098634;28;20212;-81
2021/06/27 07:45:42;;;;;;;2.23;2.03;;;19.00;99.90;;;;;;5097812;28;20176;-84
2021/06/27 07:48:08;;;;;;;4.43;1.77;;;19.10;99.90;;;;;;5101925;28;20241;-81
2021/06/27 07:50:34;;;;;;;2.97;2.17;;;19.20;99.90;;;;;;5100589;28;20249;-81
2021/06/27 07:53:00;;;;;;;2.10;1.90;;;19.30;99.90;;;;;;5097737;28;20644;-81
2021/06/27 07:55:25;;;;;;;3.37;2.00;;;19.40;99.90;;;;;;5096375;28;20647;-81
2021/06/27 07:57:52;;;;;;;2.50;1.93;;;19.60;99.90;;;;;;5097774;28;20200;-80
2021/06/27 08:00:18;;;;;;;2.50;1.93;;;19.80;99.90;;;;;;5095791;28;20273;-80
2021/06/27 08:02:44;;;;;;;2.17;1.50;;;20.00;99.90;;;;;;5097669;28;20256;-80
2021/06/27 08:05:10;;;;;;;1.70;1.60;;;20.10;99.90;;;;;;5096824;28;20208;-80
2021/06/27 08:07:36;;;;;;;1.73;1.63;;;20.30;99.90;;;;;;5098366;28;20222;-81
2021/06/27 08:10:04;;;;;;;1.60;1.50;;;20.50;99.90;;;;;;5095987;28;20653;-80
2021/06/27 08:12:30;;;;;;;1.70;1.53;;;20.60;99.90;;;;;;5095115;28;20180;-80
2021/06/27 08:14:56;;;;;;;1.80;1.70;;;20.70;99.90;;;;;;5099122;28;20202;-80
2021/06/27 08:17:21;;;;;;;1.90;1.80;;;20.80;99.90;;;;;;5095002;28;20201;-80
2021/06/27 08:19:47;;;;;;;2.20;2.00;;;20.80;99.90;;;;;;5096536;28;20622;-80
2021/06/27 08:22:13;;;;;;;2.13;1.97;;;21.00;99.90;;;;;;5096160;28;20184;-80
2021/06/27 08:24:39;;;;;;;2.00;1.90;;;21.10;99.90;;;;;;5096200;28;20202;-79
2021/06/27 08:27:06;;;;;;;2.00;1.90;;;21.30;99.90;;;;;;5094624;28;20188;-80
2021/06/27 08:29:32;;;;;;;2.83;2.00;;;21.50;99.90;;;;;;5094877;28;20180;-80
2021/06/27 08:31:58;;;;;;;2.00;1.90;;;21.70;99.90;;;;;;5094796;28;20565;-80
2021/06/27 08:34:24;;;;;;;2.00;1.80;;;21.80;99.90;;;;;;5095638;28;20176;-80
2021/06/27 08:36:49;;;;;;;2.33;2.13;;;21.90;99.90;;;;;;5095300;28;20229;-80
2021/06/27 08:39:15;;;;;;;2.47;1.97;;;21.90;99.90;;;;;;5094423;28;20263;-80
2021/06/27 08:41:41;;;;;;;1.90;1.80;;;22.00;99.90;;;;;;5095087;28;20193;-80
2021/06/27 08:44:10;;;;;;;1.93;1.70;;;22.10;99.90;;;;;;5094757;28;20210;-80
2021/06/27 08:46:40;;;;;;;2.10;1.90;;;22.20;99.90;;;;;;5094422;28;20573;-79
2021/06/27 08:49:06;;;;;;;3.37;2.03;;;22.30;99.90;;;;;;5096854;28;20195;-80
2021/06/27 08:51:40;;;;;;;2.20;1.87;;;22.50;99.90;;;;;;5097182;28;20553;-80
2021/06/27 08:54:10;;;;;;;1.73;1.63;;;22.80;99.90;;;;;;5099748;28;20213;-80
2021/06/27 08:56:38;;;;;;;1.60;1.50;;;23.10;99.90;;;;;;5100192;28;20241;-79
2021/06/27 08:59:04;;;;;;;2.33;1.50;;;23.50;99.90;;;;;;5098863;28;20200;-79
2021/06/27 09:01:30;;;;;;;1.70;1.60;;;23.80;99.90;;;;;;5099873;28;20178;-79
2021/06/27 09:03:57;;;;;;;1.90;1.80;;;24.00;99.90;;;;;;5098496;28;20229;-79
2021/06/27 09:06:30;;;;;;;1.90;1.80;;;24.20;99.90;;;;;;5097759;28;20235;-80
2021/06/27 09:09:09;;;;;;;1.50;1.40;;;24.10;99.90;;;;;;5098617;28;20191;-79
2021/06/27 09:11:34;;;;;;;1.60;1.50;;;24.20;99.90;;;;;;5098031;28;20594;-80
2021/06/27 09:14:00;;;;;;;1.50;1.40;;;24.30;99.90;;;;;;5104807;28;20164;-79
2021/06/27 09:16:29;;;;;;;1.93;1.53;;;24.40;99.90;;;;;;5105188;28;20176;-80
2021/06/27 09:19:02;;;;;;;1.63;1.53;;;24.40;99.90;;;;;;5101275;28;20295;-80
2021/06/27 09:21:27;;;;;;;2.20;1.50;;;24.40;99.90;;;;;;5101030;28;20164;-80
2021/06/27 09:23:53;;;;;;;2.50;1.90;;;24.60;99.90;;;;;;5099551;28;20208;-80
2021/06/27 09:26:32;;;;;;;1.60;1.40;;;24.80;99.90;;;;;;5101399;28;20176;-80
2021/06/27 09:28:59;;;;;;;1.73;1.30;;;24.90;99.90;;;;;;5099184;28;20204;-80
2021/06/27 09:31:35;;;;;;;1.50;1.40;;;24.90;99.90;;;;;;5099246;28;20173;-80
2021/06/27 09:34:03;;;;;;;1.60;1.50;;;25.10;99.90;;;;;;5099295;28;20168;-80
2021/06/27 09:36:29;;;;;;;2.23;1.90;;;25.30;99.90;;;;;;5100240;28;20172;-80
2021/06/27 09:38:55;;;;;;;3.07;2.10;;;25.40;99.90;;;;;;5099436;28;20291;-80
2021/06/27 09:41:28;;;;;;;2.53;2.10;;;25.60;99.90;;;;;;5100330;28;20697;-80
2021/06/27 09:43:57;;;;;;;2.40;1.67;;;25.80;99.90;;;;;;5100668;28;20218;-84
2021/06/27 09:46:39;;;;;;;1.93;1.73;;;26.00;99.90;;;;;;5102796;28;20207;-84
2021/06/27 09:49:10;;;;;;;1.70;1.60;;;26.20;99.90;;;;;;5102489;28;20195;-85
2021/06/27 09:51:37;;;;;;;1.50;1.40;;;26.30;99.90;;;;;;5100822;28;20166;-82
2021/06/27 09:54:15;;;;;;;1.70;1.60;;;26.50;99.90;;;;;;5101798;28;20177;-82
2021/06/27 09:56:41;;;;;;;1.50;1.40;;;26.50;99.90;;;;;;5102579;28;20175;-82
2021/06/27 09:59:09;;;;;;;2.07;1.60;;;26.60;99.90;;;;;;5101457;28;20203;-82
2021/06/27 10:01:36;;;;;;;2.13;1.33;;;26.70;99.90;;;;;;5100050;28;20177;-82
2021/06/27 10:04:04;;;;;;;2.77;1.50;;;26.80;99.90;;;;;;5098114;28;20200;-82
2021/06/27 10:06:33;;;;;;;4.20;1.20;;;26.90;99.90;;;;;;5106148;28;20165;-82
2021/06/27 10:09:13;;;;;;;2.00;1.50;;;27.10;99.90;;;;;;5103828;28;20188;-82
2021/06/27 10:11:58;;;;;;;2.60;1.53;;;27.30;99.90;;;;;;5103076;28;20164;-81
2021/06/27 10:14:25;;;;;;;1.30;1.20;;;27.50;99.90;;;;;;5103890;28;20175;-82
2021/06/27 10:16:52;;;;;;;2.37;1.57;;;27.40;99.90;;;;;;5102971;28;20176;-81
2021/06/27 10:19:18;;;;;;;1.83;1.60;;;27.30;99.90;;;;;;5103024;28;20193;-83
2021/06/27 10:21:44;;;;;;;1.63;1.13;;;27.10;99.90;;;;;;5102487;28;20180;-82
2021/06/27 10:24:11;;;;;;;1.63;1.40;;;27.30;99.90;;;;;;5102803;28;20210;-82
2021/06/27 10:26:37;;;;;;;1.87;1.20;;;27.60;99.90;;;;;;5100930;28;20170;-81
2021/06/27 10:29:03;;;;;;;1.77;1.40;;;27.70;99.90;;;;;;5100920;28;20291;-81
2021/06/27 10:31:29;;;;;;;1.27;1.17;;;27.90;99.90;;;;;;5101175;28;20175;-82
2021/06/27 10:33:55;;;;;;;1.37;1.27;;;28.00;99.90;;;;;;5101023;28;20181;-81
2021/06/27 10:36:37;;;;;;;1.60;1.10;;;28.10;99.90;;;;;;5101263;28;20540;-82
2021/06/27 10:39:14;;;;;;;1.40;1.30;;;28.30;99.90;;;;;;5099952;28;20203;-82
2021/06/27 10:41:51;;;;;;;1.30;1.20;;;28.40;99.90;;;;;;5101732;28;20248;-83
2021/06/27 10:44:19;;;;;;;1.53;1.30;;;28.60;99.90;;;;;;5101231;28;20199;-82
2021/06/27 10:46:49;;;;;;;3.13;1.20;;;28.90;99.90;;;;;;5101041;28;20203;-84
2021/06/27 10:49:30;;;;;;;1.13;1.13;;;29.00;99.90;;;;;;5103257;28;20200;-82
2021/06/27 10:52:00;;;;;;;1.50;1.40;;;29.10;99.90;;;;;;5103510;28;20195;-83
2021/06/27 10:54:40;;;;;;;2.60;1.20;;;29.30;99.90;;;;;;5104951;28;20168;-83
2021/06/27 10:57:11;;;;;;;2.27;1.27;;;29.50;99.90;;;;;;5099607;28;20191;-83
2021/06/27 10:59:52;;;;;;;1.47;1.37;;;29.70;99.90;;;;;;5099473;28;20153;-82
2021/06/27 11:02:39;;;;;;;1.37;1.13;;;29.60;99.90;;;;;;5097653;28;20165;-84
2021/06/27 11:05:33;;;;;;;4.57;1.97;;;29.80;99.90;;;;;;5099163;28;20227;-83
2021/06/27 11:08:00;;;;;;;1.30;1.20;;;29.80;99.90;;;;;;5098317;28;20196;-81
2021/06/27 11:10:28;;;;;;;1.20;1.10;;;30.00;99.90;;;;;;5100405;28;20236;-80
2021/06/27 11:12:59;;;;;;;3.43;1.33;;;30.10;99.90;;;;;;5109401;28;20181;-83
2021/06/27 11:15:35;;;;;;;5.03;1.27;;;30.30;99.90;;;;;;5100160;28;20178;-83
2021/06/27 11:18:07;;;;;;;1.80;1.20;;;30.50;99.90;;;;;;5101806;28;20256;-83
2021/06/27 11:20:52;;;;;;;1.93;1.27;;;30.40;99.10;;;;;;5099407;28;20173;-82
2021/06/27 11:23:18;;;;;;;1.10;1.10;;;30.40;99.90;;;;;;5099727;28;20254;-83
2021/06/27 11:25:48;;;;;;;1.40;1.30;;;30.20;99.50;;;;;;5099084;28;20222;-80
2021/06/27 11:28:20;;;;;;;1.30;1.20;;;29.90;95.30;;;;;;5099767;28;20216;-81
2021/06/27 11:30:51;;;;;;;1.40;1.00;;;29.60;94.60;;;;;;5099663;28;20174;-82
2021/06/27 11:33:22;;;;;;;0.90;0.90;;;29.80;97.70;;;;;;5100253;28;20175;-81
2021/06/27 11:35:56;;;;;;;1.00;1.00;;;30.30;98.20;;;;;;5100478;28;20182;-81
2021/06/27 11:38:40;;;;;;;3.97;1.00;;;30.70;95.80;;;;;;5099581;28;20273;-81
2021/06/27 11:41:08;;;;;;;1.23;1.10;;;31.20;92.80;;;;;;5099263;28;20259;-81
2021/06/27 11:43:57;;;;;;;0.90;0.90;;;31.30;94.70;;;;;;5099166;28;20297;-81
2021/06/27 11:46:42;;;;;;;1.17;1.07;;;31.60;94.00;;;;;;5099547;28;20176;-81
2021/06/27 11:49:09;;;;;;;1.20;0.97;;;31.90;92.80;;;;;;5099213;28;20225;-80
2021/06/27 11:51:47;;;;;;;1.30;1.20;;;32.20;92.40;;;;;;5098838;28;20179;-80
2021/06/27 11:54:15;;;;;;;1.17;1.07;;;32.10;87.30;;;;;;5099446;28;20274;-80
2021/06/27 11:57:04;;;;;;;1.07;0.97;;;31.50;90.40;;;;;;5101310;28;20632;-80
2021/06/27 11:59:36;;;;;;;1.30;1.20;;;31.50;96.80;;;;;;5099921;28;20204;-83
2021/06/27 12:02:37;;;;;;;1.00;0.90;;;31.50;91.60;;;;;;5099621;28;20170;-83
2021/06/27 12:05:09;;;;;;;1.50;1.40;;;31.50;93.80;;;;;;5089825;28;20197;-81
2021/06/27 12:07:42;;;;;;;1.57;1.23;;;31.50;95.70;;;;;;5099318;28;20683;-81
2021/06/27 12:10:19;;;;;;;1.10;1.00;;;31.70;95.80;;;;;;5101637;28;20160;-79
2021/06/27 12:12:58;;;;;;;1.30;1.20;;;31.90;89.00;;;;;;5100667;28;20185;-80
2021/06/27 12:15:27;;;;;;;1.20;1.10;;;31.80;94.40;;;;;;5101206;28;20519;-80
2021/06/27 12:18:14;;;;;;;1.10;1.00;;;31.40;81.40;;;;;;5099599;28;20246;-80
2021/06/27 12:20:46;;;;;;;5.53;0.90;;;31.00;92.20;;;;;;5102134;28;20157;-80
2021/06/27 12:23:14;;;;;;;1.30;0.93;;;30.70;93.40;;;;;;5101485;28;20185;-80
2021/06/27 12:25:43;;;;;;;2.23;1.10;;;30.50;91.20;;;;;;5101224;28;20515;-80
2021/06/27 12:28:16;;;;;;;1.20;1.10;;;30.60;90.30;;;;;;5101047;28;20209;-80
2021/06/27 12:30:49;;;;;;;1.47;1.10;;;31.10;90.20;;;;;;5101502;28;20180;-81
2021/06/27 12:33:18;;;;;;;1.27;1.10;;;31.60;91.70;;;;;;5100166;28;20203;-80
2021/06/27 12:35:45;;;;;;;3.10;1.10;;;31.90;86.00;;;;;;5100855;28;20181;-82
2021/06/27 12:38:12;;;;;;;1.10;1.00;;;32.20;92.30;;;;;;5102300;28;20558;-81
2021/06/27 12:40:44;;;;;;;1.10;1.03;;;32.80;92.20;;;;;;5102335;28;20171;-81
2021/06/27 12:43:27;;;;;;;1.73;1.07;;;33.30;86.80;;;;;;5102805;28;20172;-81
2021/06/27 12:46:08;;;;;;;1.10;1.00;;;33.90;85.00;;;;;;5103835;28;20175;-82
2021/06/27 12:48:34;;;;;;;1.23;1.17;;;33.80;80.50;;;;;;5103998;28;20541;-81
2021/06/27 12:51:00;;;;;;;3.43;1.07;;;33.80;81.20;;;;;;5103384;28;20181;-81